createdAt,value
2023-04-16T00:05:07.405Z,0
2023-04-16T00:15:07.522Z,0
2023-04-16T00:25:07.502Z,0
2023-04-16T00:35:07.928Z,0
2023-04-16T00:45:07.427Z,0
2023-04-16T00:55:07.326Z,0
2023-04-16T01:05:07.309Z,0
2023-04-16T01:15:07.306Z,0
2023-04-16T01:25:07.344Z,0
2023-04-16T01:35:07.666Z,0
2023-04-16T01:45:07.539Z,0
2023-04-16T01:55:07.237Z,0
2023-04-16T02:05:08.222Z,0
2023-04-16T02:15:07.523Z,0
2023-04-16T02:25:07.630Z,0
2023-04-16T02:35:07.986Z,0
2023-04-16T02:45:08.239Z,0
2023-04-16T02:55:07.595Z,0
2023-04-16T03:05:07.903Z,0
2023-04-16T03:15:07.371Z,0
2023-04-16T03:25:07.261Z,0
2023-04-16T03:35:07.305Z,0
2023-04-16T03:45:07.701Z,0
2023-04-16T03:55:07.549Z,0
2023-04-16T04:05:07.679Z,0
2023-04-16T04:15:07.697Z,0
2023-04-16T04:25:07.517Z,0
2023-04-16T04:35:07.355Z,0
2023-04-16T04:45:07.274Z,0
2023-04-16T04:55:07.775Z,0.0298
2023-04-16T05:05:07.469Z,0.0298
2023-04-16T05:15:07.388Z,0.0298
2023-04-16T05:25:07.527Z,0.0298
2023-04-16T05:35:07.963Z,0.0298
2023-04-16T05:45:07.402Z,0.0298
2023-04-16T05:55:07.349Z,0.2282
2023-04-16T06:05:07.470Z,0.2282
2023-04-16T06:15:07.336Z,0.2282
2023-04-16T06:25:07.561Z,0.2282
2023-04-16T06:35:07.335Z,0.2282
2023-04-16T06:45:07.478Z,0.2282
2023-04-16T06:55:07.789Z,0.744
2023-04-16T07:05:08.145Z,0.744
2023-04-16T07:15:07.477Z,0.744
2023-04-16T07:25:07.536Z,0.744
2023-04-16T07:35:07.434Z,0.744
2023-04-16T07:45:07.335Z,0.744
2023-04-16T07:55:07.457Z,1.7062
2023-04-16T08:05:07.349Z,1.7062
2023-04-16T08:15:07.471Z,1.7062
2023-04-16T08:25:07.867Z,1.7062
2023-04-16T08:35:08.165Z,1.7062
2023-04-16T08:45:07.660Z,1.7062
2023-04-16T08:55:07.462Z,2.9362
2023-04-16T09:05:07.914Z,2.9362
2023-04-16T09:15:07.718Z,2.9362
2023-04-16T09:25:07.449Z,2.9362
2023-04-16T09:35:07.657Z,2.9362
2023-04-16T09:45:07.733Z,2.9362
2023-04-16T09:55:07.700Z,4.2555
2023-04-16T10:05:08.143Z,4.2555
2023-04-16T10:15:08.150Z,4.2555
2023-04-16T10:25:07.565Z,4.2555
2023-04-16T10:35:07.546Z,4.2555
2023-04-16T10:45:07.389Z,4.2555
2023-04-16T10:55:07.355Z,4.8705
2023-04-16T11:05:08.086Z,4.8705
2023-04-16T11:15:07.520Z,4.8705
2023-04-16T11:25:07.396Z,4.8705
2023-04-16T11:35:07.545Z,4.8705
2023-04-16T11:45:07.419Z,4.8705
2023-04-16T11:55:07.715Z,5.0788
2023-04-16T12:05:07.818Z,5.0788
2023-04-16T12:15:07.380Z,5.0788
2023-04-16T12:25:08.366Z,5.0788
2023-04-16T12:35:07.561Z,5.0788
2023-04-16T12:45:07.663Z,5.0788
2023-04-16T12:55:07.413Z,4.4539
2023-04-16T13:05:07.631Z,4.4539
2023-04-16T13:15:07.533Z,4.4539
2023-04-16T13:25:07.513Z,4.4539
2023-04-16T13:35:07.543Z,4.4539
2023-04-16T13:45:07.499Z,4.4539
2023-04-16T13:55:07.744Z,3.4818
2023-04-16T14:05:07.918Z,3.4818
2023-04-16T14:15:07.354Z,3.4818
2023-04-16T14:25:07.383Z,3.4818
2023-04-16T14:35:07.601Z,3.4818
2023-04-16T14:45:07.440Z,3.4818
2023-04-16T14:55:07.651Z,2.1327
2023-04-16T15:05:07.416Z,2.1327
2023-04-16T15:15:07.365Z,2.1327
2023-04-16T15:25:07.680Z,2.1327
2023-04-16T15:35:09.856Z,2.1327
2023-04-16T15:45:07.719Z,2.1327
2023-04-16T15:55:08.016Z,1.1209
2023-04-16T16:05:07.521Z,1.1209
2023-04-16T16:15:08.132Z,1.1209
2023-04-16T16:25:07.582Z,1.1209
2023-04-16T16:35:07.771Z,1.1209
2023-04-16T16:45:07.717Z,1.1209
2023-04-16T16:55:07.879Z,0.4067
2023-04-16T17:05:07.692Z,0.4067
2023-04-16T17:15:07.589Z,0.4067
2023-04-16T17:25:07.630Z,0.4067
2023-04-16T17:35:07.697Z,0.4067
2023-04-16T17:45:07.619Z,0.4067
2023-04-16T17:55:07.681Z,0.0893
2023-04-16T18:05:07.892Z,0.0893
2023-04-16T18:15:07.701Z,0.0893
2023-04-16T18:25:07.857Z,0.0893
2023-04-16T18:35:07.778Z,0.0893
2023-04-16T18:45:09.679Z,0.0893
2023-04-16T18:55:07.591Z,0
2023-04-16T19:05:08.599Z,0
2023-04-16T19:15:08.293Z,0
2023-04-16T19:25:07.622Z,0
2023-04-16T19:35:08.669Z,0
2023-04-16T19:45:07.756Z,0
2023-04-16T19:55:07.657Z,0
2023-04-16T20:05:07.677Z,0
2023-04-16T20:15:07.921Z,0
2023-04-16T20:25:07.777Z,0
2023-04-16T20:35:07.688Z,0
2023-04-16T20:45:09.032Z,0
2023-04-16T20:55:07.855Z,0
2023-04-16T21:05:07.809Z,0
2023-04-16T21:15:07.662Z,0
2023-04-16T21:25:07.676Z,0
2023-04-16T21:35:08.028Z,0
2023-04-16T21:45:08.172Z,0
2023-04-16T21:55:07.727Z,0
2023-04-16T22:05:07.761Z,0
2023-04-16T22:15:07.907Z,0
2023-04-16T22:25:09.317Z,0
2023-04-16T22:35:07.706Z,0
2023-04-16T22:45:07.935Z,0
2023-04-16T22:55:07.748Z,0
2023-04-16T23:05:07.714Z,0
2023-04-16T23:15:07.756Z,0
2023-04-16T23:25:09.247Z,0
2023-04-16T23:35:11.382Z,0
2023-04-16T23:45:08.644Z,0
2023-04-16T23:55:10.121Z,0
